CheckWX is a tool to help pilots better visualize weather data.  It is not intended as a substitute for an official pre-flight weather briefing.

14:32:17 UTC

KISO METAR
Kinston Regional Jetport at Stallings Field Airport
Kinston, North Carolina, USA
Current

36 mins ago

KISO 261356Z 21010G18KT 10SM BKN019 24/19 A2970
Observed
Apr-26 @ 13:56 UTC
Wind
  • 210° at 10 KTS
  • Gusting to 18 KTS
Visibility
10 SM
Flight Rules
MVFR
Cloud Levels
  • Broken at 1,900' AGL
Temperature
24°C / 75°F
Dewpoint
19°C / 66°F
Humidity
74%
Altimeter
29.7" Hg
Pressure
1005.72 hPa
Previous

2 hours ago

KISO 261256Z 20010KT 10SM OVC015 22/19 A2973
Observed
Apr-26 @ 12:56 UTC
Wind
  • 200° at 10 KTS
Visibility
10 SM
Flight Rules
MVFR
Cloud Levels
  • Overcast at 1,500' AGL
Temperature
22°C / 72°F
Dewpoint
19°C / 66°F
Humidity
83%
Altimeter
29.73" Hg
Pressure
1006.82 hPa
Previous

2 hours ago

KISO 261234Z 19010G17KT 10SM BKN017 BKN025 OVC110 22/18 A2975
Observed
Apr-26 @ 12:34 UTC
Wind
  • 190° at 10 KTS
  • Gusting to 17 KTS
Visibility
10 SM
Flight Rules
MVFR
Cloud Levels
  • Broken at 1,700' AGL
  • Broken at 2,500' AGL
  • Overcast at 11,000' AGL
Temperature
22°C / 72°F
Dewpoint
18°C / 64°F
Humidity
78%
Altimeter
29.75" Hg
Pressure
1007.42 hPa